Time;durP1;ratioP1;P1;durP2;ratioP2;P2;SDS_P1;SDS_P2;PMS_P1;PMS_P2;Temp;Humidity;BMP_temperature;BMP_pressure;BME280_temperature;BME280_humidity;BME280_pressure;Samples;Min_cycle;Max_cycle;Signal;HPM_P1;HPM_P2
2023/12/15 00:01:34;;;;;;;15.98;10.05;;;;;;;4.27;86.39;93375.47;2051039;70;20139;-87
2023/12/15 00:03:59;;;;;;;15.68;9.77;;;;;;;4.24;87.05;93385.66;2051489;70;20197;-87
2023/12/15 00:06:25;;;;;;;17.40;9.40;;;;;;;4.30;86.54;93386.22;2051451;70;20258;-87
2023/12/15 00:08:51;;;;;;;14.80;8.95;;;;;;;4.33;86.21;93396.28;2051540;69;20173;-87
2023/12/15 00:11:16;;;;;;;17.45;10.05;;;;;;;4.24;86.71;93396.81;2051371;69;20160;-84
2023/12/15 00:13:43;;;;;;;16.13;10.25;;;;;;;4.05;87.64;93393.59;2051424;70;20201;-85
2023/12/15 00:16:09;;;;;;;15.05;9.48;;;;;;;4.21;87.23;93408.31;2051586;70;20150;-82
2023/12/15 00:18:36;;;;;;;15.57;9.63;;;;;;;4.25;86.82;93408.72;2052200;70;20575;-89
2023/12/15 00:21:02;;;;;;;14.55;9.02;;;;;;;4.13;86.50;93397.16;2049360;70;20142;-79
2023/12/15 00:23:27;;;;;;;10.98;7.03;;;;;;;4.26;86.98;93412.97;2052290;70;20618;-81
2023/12/15 00:25:53;;;;;;;9.82;5.57;;;;;;;4.19;87.85;93411.66;2051866;69;20221;-85
2023/12/15 00:28:20;;;;;;;10.80;6.93;;;;;;;4.12;87.91;93404.00;2051834;70;20611;-89
2023/12/15 00:31:05;;;;;;;8.13;5.00;;;;;;;4.03;89.04;93399.75;2054355;70;20237;-89
2023/12/15 00:33:33;;;;;;;9.25;5.72;;;;;;;4.01;89.59;93410.66;2051210;70;20143;-87
2023/12/15 00:35:59;;;;;;;8.48;5.45;;;;;;;4.16;88.59;93412.75;2051891;69;20153;-89
2023/12/15 00:38:25;;;;;;;7.65;4.68;;;;;;;4.30;87.59;93413.38;2051835;70;20537;-86
2023/12/15 00:40:51;;;;;;;5.80;3.53;;;;;;;4.33;87.24;93409.47;2051925;70;20165;-90
2023/12/15 00:43:17;;;;;;;9.43;5.75;;;;;;;3.96;88.11;93406.00;2051545;70;20166;-89
2023/12/15 00:45:45;;;;;;;7.55;5.35;;;;;;;4.10;87.99;93426.13;2051908;70;20151;-90
2023/12/15 00:48:15;;;;;;;8.00;5.63;;;;;;;4.11;87.54;93418.50;2052130;70;20161;-89
2023/12/15 00:50:42;;;;;;;9.50;6.00;;;;;;;4.29;86.85;93428.59;2051950;69;20146;-88
2023/12/15 00:53:08;;;;;;;8.07;5.57;;;;;;;4.28;86.55;93429.91;2050919;70;20151;-79
2023/12/15 00:55:34;;;;;;;8.35;6.00;;;;;;;4.28;86.60;93444.59;2051122;70;20492;-89
2023/12/15 00:57:59;;;;;;;8.88;5.70;;;;;;;4.26;86.52;93441.63;2051560;70;20150;-87
2023/12/15 01:00:26;;;;;;;10.02;5.32;;;;;;;4.29;86.51;93439.75;2051861;70;20185;-80
2023/12/15 01:02:52;;;;;;;7.03;4.80;;;;;;;4.33;86.56;93448.50;2051633;70;20172;-78
2023/12/15 01:05:19;;;;;;;7.25;5.18;;;;;;;4.32;86.69;93455.38;2051661;69;20246;-87
2023/12/15 01:07:44;;;;;;;8.57;5.25;;;;;;;4.33;86.61;93451.28;2051344;70;20165;-79
2023/12/15 01:10:10;;;;;;;9.20;4.90;;;;;;;4.21;87.11;93455.69;2051669;70;20216;-82
2023/12/15 01:12:37;;;;;;;7.50;5.47;;;;;;;4.03;87.52;93458.25;2051707;70;20262;-85
2023/12/15 01:15:03;;;;;;;7.38;5.07;;;;;;;3.78;88.89;93463.50;2051263;70;20242;-86
2023/12/15 01:17:29;;;;;;;7.57;5.03;;;;;;;4.14;87.80;93459.97;2051451;70;20228;-83
2023/12/15 01:20:24;;;;;;;6.93;5.00;;;;;;;4.26;87.04;93471.50;2051087;70;20564;-87
2023/12/15 01:23:03;;;;;;;5.80;4.47;;;;;;;4.29;87.02;93476.00;2053629;70;20158;-88
2023/12/15 01:25:41;;;;;;;;;;;;;;;4.23;87.19;93473.38;2048154;70;20142;-89
2023/12/15 01:28:08;;;;;;;6.60;4.80;;;;;;;4.20;87.59;93471.69;2050877;70;20070;-86
2023/12/15 01:30:35;;;;;;;7.90;4.50;;;;;;;4.30;86.71;93486.59;2050738;70;20138;-83
2023/12/15 01:33:01;;;;;;;8.32;4.65;;;;;;;4.29;86.87;93487.88;2052040;70;20545;-79
2023/12/15 01:35:27;;;;;;;6.43;4.38;;;;;;;4.32;87.02;93481.22;2053526;70;20147;-79
2023/12/15 01:37:54;;;;;;;6.22;4.20;;;;;;;4.21;86.49;93483.56;2051851;70;20138;-78
2023/12/15 01:40:20;;;;;;;6.32;4.32;;;;;;;4.29;86.84;93493.47;2051763;70;20166;-79
2023/12/15 01:42:47;;;;;;;7.75;4.25;;;;;;;4.37;86.31;93490.72;2052961;70;20162;-87
2023/12/15 01:45:13;;;;;;;6.03;4.15;;;;;;;4.35;86.28;93493.28;2057658;70;20146;-86
2023/12/15 01:47:45;;;;;;;5.72;4.15;;;;;;;4.24;87.06;93488.06;2056168;70;20160;-82
2023/12/15 01:50:11;;;;;;;5.10;4.10;;;;;;;4.33;86.75;93493.84;2056783;70;20150;-80
2023/12/15 01:52:48;;;;;;;5.80;4.22;;;;;;;4.40;86.32;93492.41;2055446;70;20146;-84
2023/12/15 01:55:20;;;;;;;5.30;4.20;;;;;;;4.26;87.47;93496.59;2053853;70;20199;-82
2023/12/15 01:57:46;;;;;;;5.28;4.10;;;;;;;4.32;87.25;93494.41;2059091;70;20170;-87
2023/12/15 02:00:12;;;;;;;5.13;3.90;;;;;;;4.33;87.55;93504.25;2056248;70;20199;-87
2023/12/15 02:02:38;;;;;;;5.13;4.07;;;;;;;4.39;86.67;93504.84;2059554;70;20143;-85
2023/12/15 02:05:06;;;;;;;6.88;4.20;;;;;;;4.31;86.58;93513.19;2059693;69;20237;-86
2023/12/15 02:07:33;;;;;;;5.00;4.15;;;;;;;4.43;86.44;93512.84;2055485;69;20145;-78
2023/12/15 02:09:59;;;;;;;5.60;4.18;;;;;;;4.42;86.66;93511.38;2054120;70;20145;-78
2023/12/15 02:12:25;;;;;;;5.43;3.67;;;;;;;4.39;86.28;93523.59;2054659;70;20139;-78
2023/12/15 02:14:50;;;;;;;6.22;4.20;;;;;;;4.44;86.57;93517.88;2055407;69;20175;-79
2023/12/15 02:17:16;;;;;;;5.65;4.22;;;;;;;4.42;86.37;93520.47;2052021;70;20169;-87
2023/12/15 02:19:42;;;;;;;5.78;4.30;;;;;;;4.28;86.73;93517.06;2052262;70;20150;-80
2023/12/15 02:22:09;;;;;;;5.63;4.28;;;;;;;4.28;86.69;93522.63;2052120;70;20138;-82
2023/12/15 02:24:35;;;;;;;5.35;4.05;;;;;;;4.36;86.42;93524.72;2052366;70;20192;-85
2023/12/15 02:27:00;;;;;;;7.15;4.38;;;;;;;4.31;86.51;93515.97;2052187;70;20147;-81
2023/12/15 02:29:27;;;;;;;8.05;4.13;;;;;;;4.30;86.35;93524.88;2051524;70;20166;-78
2023/12/15 02:31:54;;;;;;;4.85;3.67;;;;;;;4.17;86.78;93525.75;2052176;70;20195;-87
2023/12/15 02:34:20;;;;;;;6.57;4.80;;;;;;;3.63;88.73;93526.72;2052301;70;20235;-88
2023/12/15 02:37:04;;;;;;;5.78;4.43;;;;;;;3.73;89.66;93539.59;2052387;70;20146;-88
2023/12/15 02:40:00;;;;;;;;;;;;;;;3.69;89.66;93539.19;2051225;70;20152;-79
2023/12/15 02:42:25;;;;;;;5.85;4.00;;;;;;;3.76;89.42;93532.94;2051715;70;20086;-88
2023/12/15 02:44:51;;;;;;;5.45;4.05;;;;;;;3.61;90.11;93548.78;2051752;70;20149;-84
2023/12/15 02:47:17;;;;;;;4.75;3.60;;;;;;;3.63;90.71;93546.19;2051766;70;20170;-88
2023/12/15 02:49:42;;;;;;;4.47;3.40;;;;;;;3.73;90.61;93549.97;2051755;70;20158;-89
2023/12/15 02:52:08;;;;;;;7.05;3.60;;;;;;;3.67;91.22;93558.50;2052139;69;20143;-86
2023/12/15 02:54:34;;;;;;;6.65;3.90;;;;;;;3.82;90.60;93558.59;2051778;69;20262;-81
2023/12/15 02:57:00;;;;;;;5.40;3.58;;;;;;;3.80;90.55;93552.06;2051510;70;20218;-87
2023/12/15 02:59:26;;;;;;;4.32;3.33;;;;;;;4.04;89.61;93560.03;2051755;70;20186;-83
2023/12/15 03:01:52;;;;;;;4.65;3.53;;;;;;;4.14;88.82;93559.53;2051440;70;20143;-86
2023/12/15 03:04:20;;;;;;;4.95;3.50;;;;;;;4.18;88.53;93569.03;2051549;70;20145;-88
2023/12/15 03:06:46;;;;;;;4.55;3.38;;;;;;;4.27;87.95;93565.75;2051795;70;20169;-85
2023/12/15 03:09:17;;;;;;;5.85;2.97;;;;;;;4.29;87.67;93576.34;2051435;70;20181;-84
2023/12/15 03:11:51;;;;;;;4.07;3.20;;;;;;;4.15;87.98;93572.19;2052043;70;20138;-86
2023/12/15 03:14:16;;;;;;;5.88;4.43;;;;;;;4.20;87.52;93571.28;2051085;70;20157;-89
2023/12/15 03:16:45;;;;;;;5.72;3.83;;;;;;;4.22;87.48;93579.84;2051387;70;20181;-85
2023/12/15 03:22:07;;;;;;;5.18;3.38;;;;;;;4.16;87.24;93568.84;2053085;69;20178;-85
2023/12/15 03:24:32;;;;;;;4.70;3.40;;;;;;;4.22;87.62;93572.22;2052169;70;20146;-84
2023/12/15 03:27:00;;;;;;;5.45;3.80;;;;;;;4.34;86.64;93583.81;2053156;70;20143;-89
2023/12/15 03:29:32;;;;;;;5.53;3.35;;;;;;;4.24;87.28;93580.03;2052612;70;20138;-89
2023/12/15 03:32:01;;;;;;;4.80;3.50;;;;;;;4.08;87.35;93565.28;2051687;69;20139;-89
2023/12/15 03:34:26;;;;;;;7.07;3.40;;;;;;;4.27;86.96;93585.25;2051781;70;20589;-88
2023/12/15 03:36:52;;;;;;;4.35;3.47;;;;;;;4.19;87.52;93581.69;2051666;70;20237;-88
2023/12/15 03:39:18;;;;;;;5.30;3.70;;;;;;;4.26;87.13;93583.78;2051385;70;20641;-85
2023/12/15 03:41:45;;;;;;;4.47;3.45;;;;;;;4.28;87.05;93588.81;2051627;70;20308;-86
2023/12/15 03:44:10;;;;;;;4.78;3.28;;;;;;;4.29;86.72;93595.84;2051815;70;20190;-87
2023/12/15 03:46:36;;;;;;;6.03;3.78;;;;;;;4.24;86.77;93597.50;2051771;70;20605;-89
2023/12/15 03:49:02;;;;;;;5.25;3.90;;;;;;;4.27;86.87;93592.88;2051830;69;20186;-88
2023/12/15 03:51:27;;;;;;;6.75;3.65;;;;;;;4.28;86.64;93591.59;2051966;70;20574;-89
2023/12/15 03:53:53;;;;;;;7.75;3.70;;;;;;;4.22;86.76;93602.16;2051571;70;20546;-89
2023/12/15 03:56:26;;;;;;;5.75;3.58;;;;;;;4.08;87.79;93615.44;2051214;70;20157;-90
2023/12/15 03:58:52;;;;;;;;;;;;;;;4.05;87.91;93619.31;2051419;70;20163;-89
2023/12/15 04:01:18;;;;;;;7.72;3.78;;;;;;;4.18;87.30;93618.47;2051762;70;20172;-82
2023/12/15 04:03:44;;;;;;;8.55;3.58;;;;;;;4.20;87.21;93621.44;2051272;70;20158;-85
2023/12/15 04:06:09;;;;;;;7.70;3.78;;;;;;;4.22;87.19;93619.63;2051628;70;20146;-89
2023/12/15 04:08:36;;;;;;;8.38;5.90;;;;;;;4.20;87.00;93627.03;2051231;70;20138;-82
2023/12/15 04:11:03;;;;;;;6.40;4.70;;;;;;;4.25;86.78;93635.22;2051680;70;20145;-82
2023/12/15 04:13:28;;;;;;;7.90;5.47;;;;;;;4.24;86.61;93633.75;2051646;69;20150;-82
2023/12/15 04:15:54;;;;;;;8.15;5.00;;;;;;;4.20;87.18;93641.69;2051835;69;20228;-81
2023/12/15 04:18:20;;;;;;;7.53;4.55;;;;;;;4.25;86.63;93640.81;2051742;70;20587;-78
2023/12/15 04:20:45;;;;;;;6.43;4.47;;;;;;;4.25;86.85;93657.53;2051404;70;20194;-88
2023/12/15 04:23:11;;;;;;;7.28;4.22;;;;;;;4.25;86.81;93657.53;2051113;70;20142;-83
2023/12/15 04:25:36;;;;;;;6.50;4.20;;;;;;;4.22;86.73;93663.47;2052161;70;20142;-82
2023/12/15 04:28:02;;;;;;;7.50;4.47;;;;;;;4.21;86.71;93667.53;2052150;70;20166;-89
2023/12/15 04:30:28;;;;;;;9.02;5.93;;;;;;;4.22;86.83;93671.84;2051411;70;20596;-82
2023/12/15 04:32:54;;;;;;;8.95;5.82;;;;;;;4.17;86.62;93667.91;2051963;69;20156;-82
2023/12/15 04:35:21;;;;;;;7.50;5.70;;;;;;;4.26;86.69;93672.97;2051909;70;20503;-80
2023/12/15 04:37:47;;;;;;;9.32;5.68;;;;;;;4.11;86.97;93677.69;2051434;70;20145;-82
2023/12/15 04:40:13;;;;;;;7.65;5.38;;;;;;;4.05;87.00;93678.56;2051536;70;20238;-82
2023/12/15 04:42:39;;;;;;;6.57;4.55;;;;;;;4.09;87.55;93686.59;2048813;70;20590;-82
2023/12/15 04:45:09;;;;;;;8.80;4.85;;;;;;;4.21;87.14;93681.47;2051563;70;20596;-81
2023/12/15 04:47:36;;;;;;;7.70;5.20;;;;;;;4.22;86.81;93680.94;2050582;70;20185;-82
2023/12/15 04:50:03;;;;;;;12.18;6.57;;;;;;;4.03;87.34;93683.19;2051918;70;20173;-79
2023/12/15 04:52:29;;;;;;;8.35;5.55;;;;;;;4.19;87.18;93698.00;2048598;70;20135;-83
2023/12/15 04:54:54;;;;;;;6.75;5.10;;;;;;;4.24;86.83;93694.31;2051698;70;20173;-77
2023/12/15 04:57:23;;;;;;;8.68;5.03;;;;;;;4.22;86.91;93688.56;2051075;70;20177;-78
2023/12/15 04:59:48;;;;;;;6.47;4.80;;;;;;;4.24;86.60;93688.75;2051745;70;20157;-77
2023/12/15 05:02:14;;;;;;;7.05;4.95;;;;;;;4.24;86.54;93686.69;2051084;70;20158;-76
2023/12/15 05:04:40;;;;;;;7.13;5.03;;;;;;;4.27;86.28;93693.25;2051633;70;20150;-78
2023/12/15 05:07:05;;;;;;;9.23;5.70;;;;;;;4.24;86.59;93692.28;2051258;70;20160;-80
2023/12/15 05:09:32;;;;;;;11.65;6.75;;;;;;;4.26;86.51;93695.28;2053621;70;20129;-81
2023/12/15 05:11:58;;;;;;;11.48;7.63;;;;;;;4.22;86.53;93694.88;2053450;70;20149;-84
2023/12/15 05:14:23;;;;;;;9.27;6.35;;;;;;;4.12;87.17;93701.47;2051277;70;20146;-88
2023/12/15 05:16:49;;;;;;;8.90;5.80;;;;;;;3.98;87.33;93693.16;2051385;70;20530;-87
2023/12/15 05:19:15;;;;;;;10.30;6.63;;;;;;;4.13;87.08;93702.97;2051186;70;20495;-87
2023/12/15 05:21:41;;;;;;;12.88;5.97;;;;;;;4.16;86.93;93704.66;2051213;70;20602;-87
2023/12/15 05:24:12;;;;;;;13.95;7.00;;;;;;;4.16;87.03;93713.00;2051196;70;20149;-88
2023/12/15 05:26:42;;;;;;;12.10;7.22;;;;;;;4.08;87.01;93710.19;2050926;70;20737;-88
2023/12/15 05:29:34;;;;;;;9.50;7.10;;;;;;;4.13;86.95;93719.69;2049987;70;20239;-86
2023/12/15 05:32:21;;;;;;;11.82;8.23;;;;;;;4.08;87.54;93716.50;2051054;70;20200;-90
2023/12/15 05:34:47;;;;;;;11.35;8.25;;;;;;;3.86;87.73;93696.78;2051078;70;20660;-88
2023/12/15 05:37:15;;;;;;;11.02;6.63;;;;;;;3.82;88.88;93724.97;2051838;69;20150;-87
2023/12/15 05:42:40;;;;;;;18.08;9.68;;;;;;;4.10;87.35;93732.66;2051127;70;20173;-89
2023/12/15 05:45:06;;;;;;;22.48;11.23;;;;;;;4.18;87.21;93743.91;2048221;70;20581;-89
2023/12/15 05:47:52;;;;;;;19.42;11.02;;;;;;;4.20;86.53;93744.09;2040946;70;20147;-87
2023/12/15 05:50:18;;;;;;;22.17;10.65;;;;;;;4.15;86.62;93747.75;2043939;70;20226;-88
2023/12/15 05:52:44;;;;;;;21.25;10.32;;;;;;;4.10;87.32;93760.53;2044059;70;20607;-88
2023/12/15 05:55:10;;;;;;;16.45;8.35;;;;;;;4.14;86.99;93760.22;2040969;70;20236;-88
2023/12/15 05:57:36;;;;;;;15.68;8.25;;;;;;;4.15;86.82;93765.22;2043920;70;20242;-89
2023/12/15 06:00:03;;;;;;;18.35;8.48;;;;;;;4.20;86.27;93761.56;2044133;70;20171;-89
2023/12/15 06:02:29;;;;;;;12.45;7.50;;;;;;;4.12;86.94;93773.91;2044154;70;20249;-79
2023/12/15 06:04:55;;;;;;;12.77;7.53;;;;;;;4.21;86.32;93776.22;2043772;70;20167;-79
2023/12/15 06:07:21;;;;;;;14.90;7.90;;;;;;;4.22;86.74;93777.75;2043750;70;20198;-79
2023/12/15 06:09:46;;;;;;;14.90;7.88;;;;;;;4.11;86.85;93780.78;2043625;70;20686;-78
2023/12/15 06:12:12;;;;;;;11.77;6.97;;;;;;;4.13;87.39;93789.38;2043925;70;20159;-85
2023/12/15 06:14:57;;;;;;;11.23;6.10;;;;;;;4.00;87.85;93798.53;2038336;70;20302;-84
2023/12/15 06:17:23;;;;;;;10.45;5.70;;;;;;;4.08;88.01;93797.31;2040569;70;20230;-88
2023/12/15 06:19:49;;;;;;;10.45;6.30;;;;;;;4.01;87.75;93808.38;2049904;70;20549;-88
2023/12/15 06:22:14;;;;;;;8.82;5.85;;;;;;;3.98;87.91;93809.44;2051802;70;20150;-78
2023/12/15 06:24:40;;;;;;;7.47;5.40;;;;;;;4.18;86.93;93819.16;2052147;70;20239;-78
2023/12/15 06:27:06;;;;;;;6.05;4.15;;;;;;;4.23;86.65;93821.81;2053257;70;20193;-78
2023/12/15 06:29:31;;;;;;;8.18;4.70;;;;;;;4.05;87.30;93823.47;2049862;70;20239;-80
2023/12/15 06:31:58;;;;;;;7.82;4.93;;;;;;;4.24;86.50;93831.66;2051478;70;20146;-81
2023/12/15 06:34:23;;;;;;;14.05;7.35;;;;;;;4.29;86.45;93846.75;2053412;70;20149;-78
2023/12/15 06:36:49;;;;;;;13.50;6.38;;;;;;;4.21;86.36;93840.34;2055762;70;20158;-81
2023/12/15 06:39:14;;;;;;;14.50;6.88;;;;;;;4.20;86.30;93847.97;2050320;70;20185;-78
2023/12/15 06:42:02;;;;;;;13.50;7.18;;;;;;;4.13;86.33;93857.00;2041033;70;20167;-77
2023/12/15 06:44:28;;;;;;;8.02;4.95;;;;;;;3.49;89.45;93862.94;2038480;70;20144;-77
2023/12/15 06:47:15;;;;;;;7.15;4.03;;;;;;;3.79;90.03;93871.66;2038560;70;20147;-77
2023/12/15 06:49:41;;;;;;;5.20;3.40;;;;;;;4.04;88.40;93885.34;2038672;70;20269;-78
2023/12/15 06:52:07;;;;;;;6.82;4.13;;;;;;;4.19;87.16;93891.06;2038302;70;20250;-78
2023/12/15 06:54:33;;;;;;;4.07;3.33;;;;;;;4.27;86.49;93897.47;2037471;70;20262;-78
2023/12/15 06:56:58;;;;;;;2.90;2.10;;;;;;;4.25;86.62;93904.88;2038950;70;20597;-77
2023/12/15 06:59:24;;;;;;;4.95;2.03;;;;;;;4.27;86.41;93919.03;2036085;70;20260;-77
2023/12/15 07:01:51;;;;;;;2.65;1.85;;;;;;;4.26;86.08;93923.09;2038135;70;20182;-77
2023/12/15 07:04:16;;;;;;;7.68;3.22;;;;;;;4.21;86.69;93921.19;2037705;70;20168;-78
2023/12/15 07:06:42;;;;;;;9.65;5.20;;;;;;;3.96;87.05;93926.28;2037208;70;20148;-77
2023/12/15 07:09:11;;;;;;;11.80;6.15;;;;;;;4.03;87.37;93931.19;2036973;70;20155;-86
2023/12/15 07:11:54;;;;;;;11.23;6.25;;;;;;;4.19;86.74;93927.31;2036957;70;20525;-89
2023/12/15 07:14:19;;;;;;;8.50;5.18;;;;;;;4.19;86.40;93938.47;2037134;70;20151;-86
2023/12/15 07:16:45;;;;;;;4.70;3.00;;;;;;;4.19;86.29;93944.03;2037283;70;20148;-88
2023/12/15 07:19:11;;;;;;;3.80;2.30;;;;;;;4.22;85.99;93942.22;2044049;70;20217;-79
2023/12/15 07:21:36;;;;;;;4.55;2.50;;;;;;;4.24;86.20;93951.53;2050819;70;20200;-87
2023/12/15 07:24:02;;;;;;;5.60;2.70;;;;;;;4.26;86.32;93965.69;2051463;70;20151;-88
2023/12/15 07:26:27;;;;;;;3.10;1.52;;;;;;;4.13;86.63;93968.50;2051780;69;20153;-88
2023/12/15 07:28:53;;;;;;;2.35;1.10;;;;;;;4.20;86.51;93972.66;2051711;70;20149;-79
2023/12/15 07:31:20;;;;;;;14.95;5.22;;;;;;;3.99;87.78;93983.72;2051590;70;20143;-77
2023/12/15 07:33:45;;;;;;;14.13;5.95;;;;;;;4.13;87.19;93981.69;2051487;70;20652;-86
2023/12/15 07:36:11;;;;;;;15.48;5.72;;;;;;;4.23;86.54;93997.41;2050916;70;20194;-84
2023/12/15 07:38:38;;;;;;;15.43;5.30;;;;;;;4.22;86.24;94003.53;2050816;70;20153;-82
2023/12/15 07:41:06;;;;;;;16.83;6.18;;;;;;;4.02;86.92;93996.56;2051411;70;20154;-84
2023/12/15 07:43:32;;;;;;;9.70;4.10;;;;;;;4.05;87.65;94001.84;2051706;70;20154;-83
2023/12/15 07:45:58;;;;;;;9.07;4.13;;;;;;;4.17;87.13;94005.16;2051062;70;20233;-86
2023/12/15 07:48:24;;;;;;;22.38;8.23;;;;;;;3.94;87.56;94010.44;2053567;69;20134;-85
2023/12/15 07:50:50;;;;;;;26.17;9.02;;;;;;;4.04;87.82;94017.06;2051820;70;20142;-85
2023/12/15 07:53:16;;;;;;;21.13;8.07;;;;;;;4.22;87.30;94015.44;2050880;70;21054;-85
2023/12/15 07:55:41;;;;;;;21.67;9.25;;;;;;;4.31;86.82;94025.41;2051378;70;20151;-84
2023/12/15 07:58:10;;;;;;;17.00;7.22;;;;;;;4.21;87.06;94027.84;2051311;70;20150;-86
2023/12/15 08:00:35;;;;;;;10.88;5.40;;;;;;;4.18;86.98;94028.94;2053630;70;20162;-86
2023/12/15 08:03:01;;;;;;;8.43;4.60;;;;;;;4.22;87.38;94023.81;2053648;70;20530;-78
2023/12/15 08:05:27;;;;;;;12.18;5.07;;;;;;;4.41;86.81;94039.66;2051298;70;20146;-78
2023/12/15 08:07:54;;;;;;;8.48;4.43;;;;;;;4.49;86.37;94040.47;2051677;70;20162;-79
2023/12/15 08:10:24;;;;;;;5.47;3.50;;;;;;;4.57;86.28;94044.13;2051259;70;20145;-79
2023/12/15 08:12:49;;;;;;;9.63;4.85;;;;;;;4.62;85.59;94051.63;2051217;69;20164;-77
2023/12/15 08:15:15;;;;;;;19.45;9.23;;;;;;;3.93;87.93;94053.47;2051287;70;20146;-78
2023/12/15 08:17:41;;;;;;;23.80;13.40;;;;;;;4.13;88.37;94073.66;2051314;70;20151;-78
2023/12/15 08:20:07;;;;;;;26.17;13.25;;;;;;;4.42;87.54;94069.03;2050770;70;20145;-78
2023/12/15 08:22:33;;;;;;;13.70;8.10;;;;;;;4.52;86.77;94070.09;2051378;70;20519;-78
2023/12/15 08:25:00;;;;;;;15.50;7.95;;;;;;;4.13;87.11;94088.34;2051123;70;20665;-78
2023/12/15 08:27:25;;;;;;;15.52;7.88;;;;;;;4.55;86.99;94085.75;2051177;70;20162;-79
2023/12/15 08:29:56;;;;;;;15.52;7.75;;;;;;;4.71;86.15;94084.63;2051424;70;20149;-79
2023/12/15 08:32:23;;;;;;;14.52;8.40;;;;;;;4.83;86.13;94087.97;2053750;70;20228;-82
2023/12/15 08:34:49;;;;;;;14.02;6.78;;;;;;;4.79;85.66;94091.06;2048135;70;20199;-84
2023/12/15 08:37:15;;;;;;;12.32;6.53;;;;;;;4.80;85.97;94095.34;2051338;70;20146;-80
2023/12/15 08:39:40;;;;;;;10.85;6.45;;;;;;;4.78;85.66;94097.19;2051583;70;20229;-80
2023/12/15 08:42:06;;;;;;;14.15;7.80;;;;;;;4.85;85.70;94096.53;2050915;70;20232;-79
2023/12/15 08:44:32;;;;;;;13.35;7.13;;;;;;;4.91;85.47;94093.63;2051341;70;20154;-84
2023/12/15 08:46:58;;;;;;;11.93;6.45;;;;;;;4.99;85.29;94100.78;2051200;70;20518;-88
2023/12/15 08:49:23;;;;;;;9.85;5.97;;;;;;;4.95;85.52;94091.25;2050863;70;20593;-82
2023/12/15 08:51:50;;;;;;;10.43;5.18;;;;;;;4.90;85.31;94094.91;2051342;70;20603;-85
2023/12/15 08:54:16;;;;;;;9.32;5.35;;;;;;;4.97;85.57;94097.03;2051013;70;20174;-86
2023/12/15 08:56:42;;;;;;;26.15;12.25;;;;;;;5.04;84.72;94101.94;2051258;70;20150;-86
2023/12/15 08:59:07;;;;;;;42.30;16.58;;;;;;;5.16;84.69;94102.47;2051197;70;20608;-79
2023/12/15 09:01:33;;;;;;;48.30;20.73;;;;;;;4.85;85.96;94110.47;2051221;70;20158;-79
2023/12/15 09:03:59;;;;;;;38.95;18.55;;;;;;;5.09;84.96;94117.84;2048076;70;20229;-81
2023/12/15 09:06:25;;;;;;;42.58;18.02;;;;;;;5.35;84.79;94125.38;2051054;70;20623;-79
2023/12/15 09:08:52;;;;;;;35.30;17.25;;;;;;;5.56;84.42;94126.16;2051534;70;20662;-79
2023/12/15 09:11:17;;;;;;;35.92;15.18;;;;;;;5.58;84.35;94134.00;2051672;70;20237;-78
2023/12/15 09:13:43;;;;;;;30.73;14.43;;;;;;;5.64;84.16;94137.41;2051759;70;20147;-80
2023/12/15 09:16:11;;;;;;;29.67;14.57;;;;;;;5.81;83.71;94134.94;2051804;69;20150;-82
2023/12/15 09:18:36;;;;;;;25.42;12.55;;;;;;;5.87;83.53;94134.84;2051829;70;20178;-84
2023/12/15 09:21:02;;;;;;;15.98;7.78;;;;;;;5.89;83.03;94134.28;2051645;70;20229;-83
2023/12/15 09:23:29;;;;;;;8.38;5.20;;;;;;;6.00;83.01;94134.00;2051668;70;20146;-84
2023/12/15 09:25:55;;;;;;;15.02;8.15;;;;;;;5.88;83.15;94146.75;2051693;70;20154;-84
2023/12/15 09:28:20;;;;;;;29.35;12.90;;;;;;;5.46;84.06;94143.94;2051653;69;20146;-82
2023/12/15 09:30:47;;;;;;;30.00;14.35;;;;;;;5.09;84.64;94154.13;2051242;70;20663;-87
2023/12/15 09:33:12;;;;;;;28.33;13.48;;;;;;;5.52;84.84;94150.88;2051775;70;20571;-84
2023/12/15 09:35:38;;;;;;;26.25;12.38;;;;;;;5.79;83.96;94143.13;2051654;70;20156;-82
2023/12/15 09:38:03;;;;;;;26.35;11.93;;;;;;;5.97;83.15;94147.06;2051618;70;20154;-83
2023/12/15 09:40:32;;;;;;;27.73;12.13;;;;;;;5.80;82.87;94150.22;2051739;70;20151;-82
2023/12/15 09:42:58;;;;;;;25.17;12.25;;;;;;;5.83;83.06;94154.72;2048326;70;20162;-82
2023/12/15 09:45:24;;;;;;;21.80;10.57;;;;;;;5.58;83.25;94154.28;2051659;70;20213;-81
2023/12/15 09:47:50;;;;;;;21.52;10.85;;;;;;;6.04;83.26;94151.19;2051204;70;20164;-82
2023/12/15 09:50:20;;;;;;;20.15;10.48;;;;;;;6.26;81.99;94156.22;2051767;69;20138;-87
2023/12/15 09:52:46;;;;;;;24.05;10.52;;;;;;;6.29;82.24;94165.59;2051082;70;20154;-90
2023/12/15 09:55:12;;;;;;;18.05;9.20;;;;;;;6.39;81.95;94163.78;2051570;70;20602;-87
2023/12/15 09:57:40;;;;;;;16.23;8.88;;;;;;;6.50;81.88;94162.72;2051647;69;20154;-85
2023/12/15 10:00:07;;;;;;;20.13;9.48;;;;;;;6.29;82.40;94157.94;2051730;70;20171;-85
2023/12/15 10:02:38;;;;;;;20.40;11.18;;;;;;;5.96;81.82;94170.72;2051720;69;20146;-85
2023/12/15 10:05:04;;;;;;;23.33;11.07;;;;;;;5.94;83.18;94178.13;2050993;70;20380;-82
2023/12/15 10:07:30;;;;;;;50.28;23.58;;;;;;;6.08;82.22;94185.16;2051115;70;20174;-78
2023/12/15 10:09:56;;;;;;;30.23;13.13;;;;;;;6.49;81.62;94184.38;2051457;70;20530;-79
2023/12/15 10:12:22;;;;;;;57.20;27.98;;;;;;;6.73;80.97;94185.28;2050989;70;20162;-79
2023/12/15 10:14:47;;;;;;;27.50;13.93;;;;;;;6.90;80.20;94182.03;2051037;70;20143;-78
2023/12/15 10:17:13;;;;;;;23.70;11.00;;;;;;;6.84;80.24;94179.38;2051519;70;20216;-79
2023/12/15 10:19:40;;;;;;;33.92;17.55;;;;;;;6.93;80.12;94175.31;2051555;69;20142;-81
2023/12/15 10:22:06;;;;;;;19.45;10.00;;;;;;;6.98;79.55;94188.41;2051522;70;20233;-79
2023/12/15 10:24:35;;;;;;;18.27;10.43;;;;;;;7.27;79.45;94181.44;2051438;70;20673;-81
2023/12/15 10:27:03;;;;;;;14.07;8.73;;;;;;;7.08;77.89;94175.41;2051488;69;20563;-80
2023/12/15 10:29:29;;;;;;;21.98;12.20;;;;;;;6.85;79.33;94183.66;2051557;70;20606;-78
2023/12/15 10:31:55;;;;;;;22.75;11.80;;;;;;;7.11;79.40;94185.50;2050999;70;20165;-82
2023/12/15 10:34:28;;;;;;;16.45;9.15;;;;;;;7.05;78.80;94185.63;2051623;69;20237;-80
2023/12/15 10:36:57;;;;;;;10.68;5.47;;;;;;;7.00;79.32;94185.81;2051697;69;20209;-80
2023/12/15 10:39:24;;;;;;;7.30;4.00;;;;;;;6.96;76.82;94194.56;2051361;69;20161;-80
2023/12/15 10:41:52;;;;;;;5.28;3.58;;;;;;;6.97;76.91;94195.31;2051467;70;20586;-79
2023/12/15 10:44:20;;;;;;;13.00;7.90;;;;;;;6.87;77.53;94197.84;2051555;70;20487;-82
2023/12/15 10:46:47;;;;;;;19.08;11.98;;;;;;;6.92;77.68;94199.78;2053687;70;20150;-79
2023/12/15 10:49:13;;;;;;;30.98;17.60;;;;;;;7.26;77.74;94196.78;2051491;70;20162;-79
2023/12/15 10:51:42;;;;;;;22.33;13.15;;;;;;;7.39;77.01;94196.66;2051566;70;20152;-78
2023/12/15 10:54:09;;;;;;;22.25;13.13;;;;;;;7.59;76.88;94208.28;2051351;70;20242;-79
2023/12/15 10:56:40;;;;;;;21.77;13.27;;;;;;;7.79;76.61;94209.47;2051563;69;20161;-79
2023/12/15 10:59:07;;;;;;;17.80;11.30;;;;;;;7.69;76.61;94208.50;2051568;69;20313;-78
2023/12/15 11:01:40;;;;;;;17.27;10.57;;;;;;;7.82;75.68;94206.31;2051420;70;20699;-82
2023/12/15 11:04:22;;;;;;;17.30;9.82;;;;;;;7.73;75.72;94211.69;2050937;70;20149;-79
2023/12/15 11:06:50;;;;;;;15.82;9.82;;;;;;;7.66;75.51;94215.25;2051575;70;20176;-78
2023/12/15 11:09:35;;;;;;;13.57;8.27;;;;;;;7.97;75.25;94216.81;2051457;69;20142;-79
2023/12/15 11:12:41;;;;;;;12.23;7.38;;;;;;;8.11;74.89;94223.03;2051476;70;20173;-79
2023/12/15 11:15:13;;;;;;;9.68;5.82;;;;;;;8.00;74.33;94212.13;2051626;69;20193;-79
2023/12/15 11:17:46;;;;;;;8.85;4.90;;;;;;;8.10;73.13;94224.31;2051463;70;20143;-78
2023/12/15 11:20:25;;;;;;;18.13;9.35;;;;;;;7.11;75.45;94225.47;2050836;70;20182;-79
2023/12/15 11:23:04;;;;;;;14.30;7.70;;;;;;;7.59;75.57;94213.91;2051042;70;20151;-81
2023/12/15 11:25:32;;;;;;;15.00;7.55;;;;;;;8.04;74.80;94223.75;2051692;70;20213;-79
2023/12/15 11:28:15;;;;;;;12.45;7.13;;;;;;;8.34;74.06;94215.38;2051846;70;20178;-79
2023/12/15 11:30:48;;;;;;;16.45;7.22;;;;;;;8.50;73.84;94206.97;2051376;69;20146;-78
2023/12/15 11:33:32;;;;;;;8.93;5.45;;;;;;;8.28;74.94;94214.03;2051204;70;20237;-84
2023/12/15 11:36:00;;;;;;;4.65;2.95;;;;;;;8.38;72.21;94215.00;2051466;70;20177;-77
2023/12/15 11:38:26;;;;;;;6.57;4.47;;;;;;;8.49;72.47;94217.47;2051648;70;20150;-81
2023/12/15 11:40:56;;;;;;;5.45;2.25;;;;;;;8.72;72.57;94211.09;2051468;69;20150;-77
2023/12/15 11:43:23;;;;;;;3.70;1.50;;;;;;;8.71;72.38;94213.16;2051362;69;20142;-79
2023/12/15 11:45:51;;;;;;;1.42;1.30;;;;;;;8.88;73.00;94212.56;2051468;70;20161;-77